sensor_id;sensor_type;location;lat;lon;timestamp;P1;durP1;ratioP1;P2;durP2;ratioP2
37451;SDS011;23314;51.114;6.900;2023-05-17T04:02:32;18.47;;;10.67;;
37451;SDS011;23314;51.114;6.900;2023-05-17T04:04:58;20.90;;;12.43;;
37451;SDS011;23314;51.114;6.900;2023-05-17T04:07:23;19.80;;;12.47;;
37451;SDS011;23314;51.114;6.900;2023-05-17T04:09:48;21.97;;;14.10;;
37451;SDS011;23314;51.114;6.900;2023-05-17T04:12:14;27.30;;;18.20;;
37451;SDS011;23314;51.114;6.900;2023-05-17T04:14:39;25.47;;;14.77;;
37451;SDS011;23314;51.114;6.900;2023-05-17T04:17:05;25.00;;;13.07;;
37451;SDS011;23314;51.114;6.900;2023-05-17T04:19:30;20.13;;;12.13;;
37451;SDS011;23314;51.114;6.900;2023-05-17T04:21:56;21.93;;;12.00;;
37451;SDS011;23314;51.114;6.900;2023-05-17T04:24:21;21.67;;;11.30;;
37451;SDS011;23314;51.114;6.900;2023-05-17T04:26:46;25.40;;;11.70;;
37451;SDS011;23314;51.114;6.900;2023-05-17T04:29:11;27.03;;;13.17;;
37451;SDS011;23314;51.114;6.900;2023-05-17T04:31:37;22.00;;;11.37;;
37451;SDS011;23314;51.114;6.900;2023-05-17T04:34:02;21.07;;;12.37;;
37451;SDS011;23314;51.114;6.900;2023-05-17T04:36:27;24.43;;;12.33;;
37451;SDS011;23314;51.114;6.900;2023-05-17T04:38:54;28.20;;;14.00;;
37451;SDS011;23314;51.114;6.900;2023-05-17T04:41:19;28.93;;;14.80;;
37451;SDS011;23314;51.114;6.900;2023-05-17T04:43:44;26.33;;;14.23;;
37451;SDS011;23314;51.114;6.900;2023-05-17T04:46:10;27.73;;;15.13;;
37451;SDS011;23314;51.114;6.900;2023-05-17T04:48:35;34.43;;;16.47;;
37451;SDS011;23314;51.114;6.900;2023-05-17T04:51:03;28.77;;;15.20;;
37451;SDS011;23314;51.114;6.900;2023-05-17T04:53:28;31.07;;;14.73;;
37451;SDS011;23314;51.114;6.900;2023-05-17T04:55:55;29.00;;;15.33;;
37451;SDS011;23314;51.114;6.900;2023-05-17T04:58:23;26.47;;;14.33;;
37451;SDS011;23314;51.114;6.900;2023-05-17T05:00:49;23.17;;;14.50;;
37451;SDS011;23314;51.114;6.900;2023-05-17T05:03:14;25.77;;;14.77;;
37451;SDS011;23314;51.114;6.900;2023-05-17T05:05:40;25.93;;;13.40;;
37451;SDS011;23314;51.114;6.900;2023-05-17T05:08:05;23.40;;;12.63;;
37451;SDS011;23314;51.114;6.900;2023-05-17T05:10:30;25.90;;;13.47;;
37451;SDS011;23314;51.114;6.900;2023-05-17T05:12:56;25.47;;;13.50;;
37451;SDS011;23314;51.114;6.900;2023-05-17T05:15:22;23.73;;;12.40;;
37451;SDS011;23314;51.114;6.900;2023-05-17T05:17:47;24.97;;;14.00;;
37451;SDS011;23314;51.114;6.900;2023-05-17T05:20:13;22.67;;;13.67;;
37451;SDS011;23314;51.114;6.900;2023-05-17T05:22:38;28.80;;;13.93;;
37451;SDS011;23314;51.114;6.900;2023-05-17T05:25:04;27.03;;;14.57;;
37451;SDS011;23314;51.114;6.900;2023-05-17T05:27:29;25.63;;;14.97;;
37451;SDS011;23314;51.114;6.900;2023-05-17T05:29:55;24.07;;;14.40;;
37451;SDS011;23314;51.114;6.900;2023-05-17T05:32:20;24.43;;;13.40;;
37451;SDS011;23314;51.114;6.900;2023-05-17T05:34:45;25.60;;;15.13;;
37451;SDS011;23314;51.114;6.900;2023-05-17T05:37:11;26.23;;;15.60;;
37451;SDS011;23314;51.114;6.900;2023-05-17T05:39:36;22.40;;;14.90;;
37451;SDS011;23314;51.114;6.900;2023-05-17T05:42:01;28.10;;;15.97;;
37451;SDS011;23314;51.114;6.900;2023-05-17T05:44:28;31.40;;;16.70;;
37451;SDS011;23314;51.114;6.900;2023-05-17T05:46:53;33.60;;;17.03;;
37451;SDS011;23314;51.114;6.900;2023-05-17T05:49:19;28.00;;;14.70;;
37451;SDS011;23314;51.114;6.900;2023-05-17T05:51:44;27.30;;;14.67;;
37451;SDS011;23314;51.114;6.900;2023-05-17T05:54:11;25.07;;;16.83;;
37451;SDS011;23314;51.114;6.900;2023-05-17T05:56:37;33.37;;;20.43;;
37451;SDS011;23314;51.114;6.900;2023-05-17T05:59:02;30.27;;;20.13;;
37451;SDS011;23314;51.114;6.900;2023-05-17T06:01:28;36.10;;;19.37;;
37451;SDS011;23314;51.114;6.900;2023-05-17T06:03:53;30.77;;;18.77;;
37451;SDS011;23314;51.114;6.900;2023-05-17T06:06:18;33.43;;;19.90;;
37451;SDS011;23314;51.114;6.900;2023-05-17T06:08:44;34.50;;;20.70;;
37451;SDS011;23314;51.114;6.900;2023-05-17T06:11:11;42.50;;;20.13;;
37451;SDS011;23314;51.114;6.900;2023-05-17T06:13:37;28.40;;;19.17;;
37451;SDS011;23314;51.114;6.900;2023-05-17T06:16:02;33.10;;;18.90;;
37451;SDS011;23314;51.114;6.900;2023-05-17T06:18:29;32.70;;;20.00;;
37451;SDS011;23314;51.114;6.900;2023-05-17T06:20:54;35.00;;;19.63;;
37451;SDS011;23314;51.114;6.900;2023-05-17T06:23:20;31.97;;;19.23;;
37451;SDS011;23314;51.114;6.900;2023-05-17T06:25:45;29.90;;;20.50;;
37451;SDS011;23314;51.114;6.900;2023-05-17T06:28:10;25.87;;;16.13;;
37451;SDS011;23314;51.114;6.900;2023-05-17T06:30:36;30.77;;;18.17;;
37451;SDS011;23314;51.114;6.900;2023-05-17T06:33:01;26.30;;;15.43;;
37451;SDS011;23314;51.114;6.900;2023-05-17T06:35:26;22.57;;;12.40;;
37451;SDS011;23314;51.114;6.900;2023-05-17T06:37:52;21.30;;;12.30;;
37451;SDS011;23314;51.114;6.900;2023-05-17T06:40:17;28.00;;;12.00;;
37451;SDS011;23314;51.114;6.900;2023-05-17T06:42:42;23.27;;;11.13;;
37451;SDS011;23314;51.114;6.900;2023-05-17T06:45:08;20.20;;;11.10;;
37451;SDS011;23314;51.114;6.900;2023-05-17T06:47:33;24.30;;;11.80;;
37451;SDS011;23314;51.114;6.900;2023-05-17T06:49:59;18.67;;;9.73;;
37451;SDS011;23314;51.114;6.900;2023-05-17T06:52:24;22.93;;;10.13;;
37451;SDS011;23314;51.114;6.900;2023-05-17T06:54:50;17.37;;;8.47;;
37451;SDS011;23314;51.114;6.900;2023-05-17T06:57:16;18.77;;;8.07;;
37451;SDS011;23314;51.114;6.900;2023-05-17T06:59:41;15.33;;;7.00;;
37451;SDS011;23314;51.114;6.900;2023-05-17T07:02:06;15.93;;;6.13;;
37451;SDS011;23314;51.114;6.900;2023-05-17T07:04:31;13.97;;;5.70;;
37451;SDS011;23314;51.114;6.900;2023-05-17T07:06:57;16.47;;;4.73;;
37451;SDS011;23314;51.114;6.900;2023-05-17T07:09:22;9.83;;;4.33;;
37451;SDS011;23314;51.114;6.900;2023-05-17T07:11:47;17.40;;;4.40;;
37451;SDS011;23314;51.114;6.900;2023-05-17T07:14:13;12.27;;;3.73;;
37451;SDS011;23314;51.114;6.900;2023-05-17T07:16:38;9.93;;;4.10;;
37451;SDS011;23314;51.114;6.900;2023-05-17T07:19:04;12.53;;;3.70;;
37451;SDS011;23314;51.114;6.900;2023-05-17T07:21:30;11.77;;;4.17;;
37451;SDS011;23314;51.114;6.900;2023-05-17T07:23:56;13.63;;;3.87;;
37451;SDS011;23314;51.114;6.900;2023-05-17T07:26:21;14.57;;;3.13;;
37451;SDS011;23314;51.114;6.900;2023-05-17T07:28:47;11.53;;;3.57;;
37451;SDS011;23314;51.114;6.900;2023-05-17T07:31:13;11.37;;;3.03;;
37451;SDS011;23314;51.114;6.900;2023-05-17T07:33:38;12.33;;;2.93;;
37451;SDS011;23314;51.114;6.900;2023-05-17T07:36:04;17.57;;;3.10;;
37451;SDS011;23314;51.114;6.900;2023-05-17T07:38:30;11.50;;;3.00;;
37451;SDS011;23314;51.114;6.900;2023-05-17T07:40:55;11.83;;;3.53;;
37451;SDS011;23314;51.114;6.900;2023-05-17T07:43:21;11.17;;;3.60;;
37451;SDS011;23314;51.114;6.900;2023-05-17T07:45:46;13.13;;;3.57;;
37451;SDS011;23314;51.114;6.900;2023-05-17T07:48:11;16.03;;;3.03;;
37451;SDS011;23314;51.114;6.900;2023-05-17T07:50:37;9.40;;;2.60;;
37451;SDS011;23314;51.114;6.900;2023-05-17T07:53:02;11.73;;;2.67;;
37451;SDS011;23314;51.114;6.900;2023-05-17T07:55:28;12.13;;;3.43;;
37451;SDS011;23314;51.114;6.900;2023-05-17T07:57:53;12.23;;;2.57;;
37451;SDS011;23314;51.114;6.900;2023-05-17T08:00:18;8.23;;;2.60;;
37451;SDS011;23314;51.114;6.900;2023-05-17T08:02:44;12.20;;;2.97;;
37451;SDS011;23314;51.114;6.900;2023-05-17T08:05:10;11.53;;;2.90;;
37451;SDS011;23314;51.114;6.900;2023-05-17T08:07:35;15.30;;;3.03;;
37451;SDS011;23314;51.114;6.900;2023-05-17T08:10:01;12.07;;;2.80;;
37451;SDS011;23314;51.114;6.900;2023-05-17T08:12:26;10.00;;;2.73;;
37451;SDS011;23314;51.114;6.900;2023-05-17T08:14:51;9.63;;;2.73;;
37451;SDS011;23314;51.114;6.900;2023-05-17T08:17:17;8.90;;;2.87;;
37451;SDS011;23314;51.114;6.900;2023-05-17T08:19:42;8.87;;;2.80;;
37451;SDS011;23314;51.114;6.900;2023-05-17T08:22:07;11.70;;;2.80;;
37451;SDS011;23314;51.114;6.900;2023-05-17T08:24:33;7.83;;;2.60;;
37451;SDS011;23314;51.114;6.900;2023-05-17T08:26:58;8.63;;;2.70;;
37451;SDS011;23314;51.114;6.900;2023-05-17T08:29:24;11.93;;;2.50;;
37451;SDS011;23314;51.114;6.900;2023-05-17T08:31:49;8.67;;;2.50;;
37451;SDS011;23314;51.114;6.900;2023-05-17T08:34:15;8.10;;;2.43;;
37451;SDS011;23314;51.114;6.900;2023-05-17T08:36:40;9.23;;;2.80;;
37451;SDS011;23314;51.114;6.900;2023-05-17T08:39:06;9.83;;;3.20;;
37451;SDS011;23314;51.114;6.900;2023-05-17T08:41:32;10.60;;;2.83;;
37451;SDS011;23314;51.114;6.900;2023-05-17T08:43:57;10.47;;;3.40;;
37451;SDS011;23314;51.114;6.900;2023-05-17T08:46:23;12.43;;;3.27;;
37451;SDS011;23314;51.114;6.900;2023-05-17T08:48:51;15.43;;;3.13;;
37451;SDS011;23314;51.114;6.900;2023-05-17T08:51:18;9.60;;;2.70;;
37451;SDS011;23314;51.114;6.900;2023-05-17T08:53:43;9.23;;;2.77;;
37451;SDS011;23314;51.114;6.900;2023-05-17T08:56:11;13.27;;;2.97;;
37451;SDS011;23314;51.114;6.900;2023-05-17T08:58:39;9.77;;;2.50;;
37451;SDS011;23314;51.114;6.900;2023-05-17T09:01:07;7.93;;;2.70;;
37451;SDS011;23314;51.114;6.900;2023-05-17T09:03:33;14.13;;;2.83;;
37451;SDS011;23314;51.114;6.900;2023-05-17T09:05:59;14.63;;;2.53;;
37451;SDS011;23314;51.114;6.900;2023-05-17T09:08:25;10.73;;;2.80;;
37451;SDS011;23314;51.114;6.900;2023-05-17T09:10:51;9.83;;;2.80;;
37451;SDS011;23314;51.114;6.900;2023-05-17T09:13:17;14.67;;;3.07;;
37451;SDS011;23314;51.114;6.900;2023-05-17T09:15:43;8.33;;;2.60;;
37451;SDS011;23314;51.114;6.900;2023-05-17T09:18:11;10.13;;;2.97;;
37451;SDS011;23314;51.114;6.900;2023-05-17T09:20:36;6.27;;;2.17;;
37451;SDS011;23314;51.114;6.900;2023-05-17T09:23:03;7.00;;;2.53;;
37451;SDS011;23314;51.114;6.900;2023-05-17T09:25:30;10.80;;;2.83;;
37451;SDS011;23314;51.114;6.900;2023-05-17T09:28:04;11.90;;;2.80;;
37451;SDS011;23314;51.114;6.900;2023-05-17T09:30:34;12.27;;;2.70;;
37451;SDS011;23314;51.114;6.900;2023-05-17T09:33:09;9.33;;;2.80;;
37451;SDS011;23314;51.114;6.900;2023-05-17T09:35:35;8.83;;;2.60;;
37451;SDS011;23314;51.114;6.900;2023-05-17T09:40:41;10.23;;;2.83;;
37451;SDS011;23314;51.114;6.900;2023-05-17T09:43:08;11.83;;;2.83;;
37451;SDS011;23314;51.114;6.900;2023-05-17T09:45:34;8.67;;;2.60;;
37451;SDS011;23314;51.114;6.900;2023-05-17T09:48:15;6.73;;;2.33;;
37451;SDS011;23314;51.114;6.900;2023-05-17T09:50:46;11.53;;;2.63;;
37451;SDS011;23314;51.114;6.900;2023-05-17T09:53:32;7.77;;;2.70;;
37451;SDS011;23314;51.114;6.900;2023-05-17T09:56:03;9.63;;;2.80;;
37451;SDS011;23314;51.114;6.900;2023-05-17T09:58:30;8.40;;;3.10;;
37451;SDS011;23314;51.114;6.900;2023-05-17T10:01:04;9.77;;;2.57;;
37451;SDS011;23314;51.114;6.900;2023-05-17T10:03:34;12.57;;;2.43;;
37451;SDS011;23314;51.114;6.900;2023-05-17T10:06:07;9.03;;;2.47;;
37451;SDS011;23314;51.114;6.900;2023-05-17T10:08:34;9.63;;;2.63;;
37451;SDS011;23314;51.114;6.900;2023-05-17T10:11:07;9.13;;;2.60;;
37451;SDS011;23314;51.114;6.900;2023-05-17T10:13:35;13.60;;;3.60;;
37451;SDS011;23314;51.114;6.900;2023-05-17T10:16:04;8.53;;;2.63;;
37451;SDS011;23314;51.114;6.900;2023-05-17T10:18:30;6.87;;;2.47;;
37451;SDS011;23314;51.114;6.900;2023-05-17T10:20:56;9.27;;;2.67;;
37451;SDS011;23314;51.114;6.900;2023-05-17T10:23:22;5.90;;;2.70;;
37451;SDS011;23314;51.114;6.900;2023-05-17T10:25:48;9.17;;;3.10;;
37451;SDS011;23314;51.114;6.900;2023-05-17T10:28:15;7.77;;;2.23;;
37451;SDS011;23314;51.114;6.900;2023-05-17T10:30:41;7.47;;;2.57;;
37451;SDS011;23314;51.114;6.900;2023-05-17T10:33:07;11.97;;;2.50;;
37451;SDS011;23314;51.114;6.900;2023-05-17T10:35:33;8.17;;;2.73;;
37451;SDS011;23314;51.114;6.900;2023-05-17T10:37:59;11.70;;;3.83;;
37451;SDS011;23314;51.114;6.900;2023-05-17T10:40:25;15.53;;;3.60;;
37451;SDS011;23314;51.114;6.900;2023-05-17T10:42:53;11.20;;;3.33;;
37451;SDS011;23314;51.114;6.900;2023-05-17T10:45:21;10.10;;;3.50;;
37451;SDS011;23314;51.114;6.900;2023-05-17T10:47:50;13.23;;;3.93;;
37451;SDS011;23314;51.114;6.900;2023-05-17T10:50:20;10.13;;;3.20;;
37451;SDS011;23314;51.114;6.900;2023-05-17T10:52:49;8.40;;;3.10;;
37451;SDS011;23314;51.114;6.900;2023-05-17T10:55:19;11.13;;;3.03;;
37451;SDS011;23314;51.114;6.900;2023-05-17T10:57:56;9.90;;;3.00;;
37451;SDS011;23314;51.114;6.900;2023-05-17T11:00:40;7.33;;;3.10;;
37451;SDS011;23314;51.114;6.900;2023-05-17T11:03:19;7.20;;;2.53;;
37451;SDS011;23314;51.114;6.900;2023-05-17T11:08:44;4.87;;;2.37;;
37451;SDS011;23314;51.114;6.900;2023-05-17T11:11:30;15.10;;;3.53;;
37451;SDS011;23314;51.114;6.900;2023-05-17T11:13:56;10.23;;;3.40;;
37451;SDS011;23314;51.114;6.900;2023-05-17T11:16:25;9.77;;;3.17;;
37451;SDS011;23314;51.114;6.900;2023-05-17T11:19:05;10.77;;;3.30;;
37451;SDS011;23314;51.114;6.900;2023-05-17T11:21:31;8.13;;;2.73;;
37451;SDS011;23314;51.114;6.900;2023-05-17T11:23:58;9.03;;;2.97;;
37451;SDS011;23314;51.114;6.900;2023-05-17T11:29:07;6.03;;;2.50;;
37451;SDS011;23314;51.114;6.900;2023-05-17T11:31:35;8.87;;;2.73;;
37451;SDS011;23314;51.114;6.900;2023-05-17T11:34:01;11.87;;;3.03;;
37451;SDS011;23314;51.114;6.900;2023-05-17T11:36:27;4.87;;;2.40;;
37451;SDS011;23314;51.114;6.900;2023-05-17T11:39:09;10.63;;;3.20;;
37451;SDS011;23314;51.114;6.900;2023-05-17T11:41:46;9.27;;;3.00;;
37451;SDS011;23314;51.114;6.900;2023-05-17T11:44:12;13.90;;;3.23;;
37451;SDS011;23314;51.114;6.900;2023-05-17T11:46:38;7.43;;;2.80;;
37451;SDS011;23314;51.114;6.900;2023-05-17T11:49:07;7.23;;;2.70;;
37451;SDS011;23314;51.114;6.900;2023-05-17T11:51:33;8.50;;;2.45;;
37451;SDS011;23314;51.114;6.900;2023-05-17T11:53:59;9.17;;;2.60;;
37451;SDS011;23314;51.114;6.900;2023-05-17T11:56:28;10.33;;;3.33;;
37451;SDS011;23314;51.114;6.900;2023-05-17T11:58:58;6.85;;;2.55;;
37451;SDS011;23314;51.114;6.900;2023-05-17T12:01:24;12.20;;;2.90;;
37451;SDS011;23314;51.114;6.900;2023-05-17T12:03:54;10.80;;;3.17;;
37451;SDS011;23314;51.114;6.900;2023-05-17T12:06:21;8.77;;;3.17;;
37451;SDS011;23314;51.114;6.900;2023-05-17T12:08:48;6.73;;;2.20;;
37451;SDS011;23314;51.114;6.900;2023-05-17T12:11:14;5.63;;;2.53;;
37451;SDS011;23314;51.114;6.900;2023-05-17T12:13:41;7.77;;;2.27;;
37451;SDS011;23314;51.114;6.900;2023-05-17T12:16:14;9.27;;;2.83;;
37451;SDS011;23314;51.114;6.900;2023-05-17T12:21:08;6.90;;;2.70;;
37451;SDS011;23314;51.114;6.900;2023-05-17T12:23:35;7.57;;;2.40;;
37451;SDS011;23314;51.114;6.900;2023-05-17T12:26:15;5.10;;;2.17;;
37451;SDS011;23314;51.114;6.900;2023-05-17T12:28:42;8.93;;;2.90;;
37451;SDS011;23314;51.114;6.900;2023-05-17T12:31:17;4.57;;;2.20;;
37451;SDS011;23314;51.114;6.900;2023-05-17T12:33:44;9.27;;;2.87;;
37451;SDS011;23314;51.114;6.900;2023-05-17T12:36:12;8.30;;;2.70;;
37451;SDS011;23314;51.114;6.900;2023-05-17T12:38:41;8.60;;;2.67;;
37451;SDS011;23314;51.114;6.900;2023-05-17T12:41:12;9.30;;;3.87;;
37451;SDS011;23314;51.114;6.900;2023-05-17T12:43:42;5.43;;;2.40;;
37451;SDS011;23314;51.114;6.900;2023-05-17T12:46:16;10.30;;;2.60;;
37451;SDS011;23314;51.114;6.900;2023-05-17T12:48:43;9.40;;;2.77;;
37451;SDS011;23314;51.114;6.900;2023-05-17T12:51:10;12.90;;;2.97;;
37451;SDS011;23314;51.114;6.900;2023-05-17T12:53:40;7.40;;;2.10;;
37451;SDS011;23314;51.114;6.900;2023-05-17T12:56:07;7.40;;;3.03;;
37451;SDS011;23314;51.114;6.900;2023-05-17T12:58:33;10.20;;;2.80;;
37451;SDS011;23314;51.114;6.900;2023-05-17T13:00:59;6.83;;;2.20;;
37451;SDS011;23314;51.114;6.900;2023-05-17T13:03:26;10.87;;;2.77;;
37451;SDS011;23314;51.114;6.900;2023-05-17T13:05:59;7.00;;;2.57;;
37451;SDS011;23314;51.114;6.900;2023-05-17T13:08:26;7.60;;;2.65;;
37451;SDS011;23314;51.114;6.900;2023-05-17T13:11:04;10.00;;;2.60;;
37451;SDS011;23314;51.114;6.900;2023-05-17T13:13:31;7.27;;;3.00;;
37451;SDS011;23314;51.114;6.900;2023-05-17T13:15:58;6.10;;;2.57;;
37451;SDS011;23314;51.114;6.900;2023-05-17T13:18:25;9.00;;;2.77;;
37451;SDS011;23314;51.114;6.900;2023-05-17T13:20:51;4.43;;;2.63;;
37451;SDS011;23314;51.114;6.900;2023-05-17T13:23:17;11.27;;;2.87;;
37451;SDS011;23314;51.114;6.900;2023-05-17T13:25:46;7.30;;;2.87;;
37451;SDS011;23314;51.114;6.900;2023-05-17T13:28:11;11.13;;;2.73;;
37451;SDS011;23314;51.114;6.900;2023-05-17T13:30:37;4.93;;;2.13;;
37451;SDS011;23314;51.114;6.900;2023-05-17T13:33:02;10.33;;;3.17;;
37451;SDS011;23314;51.114;6.900;2023-05-17T13:35:28;9.27;;;2.30;;
37451;SDS011;23314;51.114;6.900;2023-05-17T13:37:56;7.07;;;2.40;;
37451;SDS011;23314;51.114;6.900;2023-05-17T13:40:22;5.73;;;2.23;;
37451;SDS011;23314;51.114;6.900;2023-05-17T13:42:49;7.50;;;2.60;;
37451;SDS011;23314;51.114;6.900;2023-05-17T13:45:16;5.17;;;2.27;;
37451;SDS011;23314;51.114;6.900;2023-05-17T13:47:42;10.50;;;2.57;;
37451;SDS011;23314;51.114;6.900;2023-05-17T13:50:08;6.70;;;2.40;;
37451;SDS011;23314;51.114;6.900;2023-05-17T13:52:34;6.97;;;2.40;;
37451;SDS011;23314;51.114;6.900;2023-05-17T13:55:01;7.80;;;2.00;;
37451;SDS011;23314;51.114;6.900;2023-05-17T13:57:28;4.43;;;2.20;;
37451;SDS011;23314;51.114;6.900;2023-05-17T13:59:55;6.37;;;2.23;;
37451;SDS011;23314;51.114;6.900;2023-05-17T14:02:24;8.40;;;3.03;;
37451;SDS011;23314;51.114;6.900;2023-05-17T14:04:52;7.77;;;2.67;;
37451;SDS011;23314;51.114;6.900;2023-05-17T14:07:18;7.47;;;2.33;;
37451;SDS011;23314;51.114;6.900;2023-05-17T14:09:44;4.40;;;1.80;;
37451;SDS011;23314;51.114;6.900;2023-05-17T14:12:10;5.70;;;2.57;;
37451;SDS011;23314;51.114;6.900;2023-05-17T14:14:37;7.03;;;2.37;;
37451;SDS011;23314;51.114;6.900;2023-05-17T14:17:04;9.80;;;2.57;;
37451;SDS011;23314;51.114;6.900;2023-05-17T14:19:30;5.67;;;2.47;;
37451;SDS011;23314;51.114;6.900;2023-05-17T14:21:57;6.60;;;2.03;;
37451;SDS011;23314;51.114;6.900;2023-05-17T14:24:22;7.37;;;2.17;;
37451;SDS011;23314;51.114;6.900;2023-05-17T14:26:48;13.73;;;2.67;;
37451;SDS011;23314;51.114;6.900;2023-05-17T14:29:13;6.37;;;2.40;;
37451;SDS011;23314;51.114;6.900;2023-05-17T14:31:39;6.50;;;2.57;;
37451;SDS011;23314;51.114;6.900;2023-05-17T14:34:05;4.57;;;2.20;;
37451;SDS011;23314;51.114;6.900;2023-05-17T14:36:31;5.53;;;2.00;;
37451;SDS011;23314;51.114;6.900;2023-05-17T14:38:59;6.63;;;2.30;;
37451;SDS011;23314;51.114;6.900;2023-05-17T14:41:25;6.47;;;2.30;;
37451;SDS011;23314;51.114;6.900;2023-05-17T14:43:51;6.53;;;2.30;;
37451;SDS011;23314;51.114;6.900;2023-05-17T14:46:16;5.00;;;2.37;;
37451;SDS011;23314;51.114;6.900;2023-05-17T14:48:42;7.93;;;2.63;;
37451;SDS011;23314;51.114;6.900;2023-05-17T14:51:07;6.80;;;2.53;;
37451;SDS011;23314;51.114;6.900;2023-05-17T14:53:33;6.83;;;2.40;;
37451;SDS011;23314;51.114;6.900;2023-05-17T14:55:58;3.13;;;2.00;;
37451;SDS011;23314;51.114;6.900;2023-05-17T14:58:24;7.37;;;2.63;;
37451;SDS011;23314;51.114;6.900;2023-05-17T15:00:52;10.97;;;2.60;;
37451;SDS011;23314;51.114;6.900;2023-05-17T15:03:21;4.13;;;2.10;;
37451;SDS011;23314;51.114;6.900;2023-05-17T15:05:54;5.83;;;2.63;;
37451;SDS011;23314;51.114;6.900;2023-05-17T15:08:20;5.60;;;2.30;;
37451;SDS011;23314;51.114;6.900;2023-05-17T15:10:48;8.63;;;2.43;;
37451;SDS011;23314;51.114;6.900;2023-05-17T15:13:14;8.17;;;2.67;;
37451;SDS011;23314;51.114;6.900;2023-05-17T15:15:41;6.63;;;2.53;;
37451;SDS011;23314;51.114;6.900;2023-05-17T15:18:07;6.30;;;2.20;;
37451;SDS011;23314;51.114;6.900;2023-05-17T15:20:34;6.73;;;2.33;;
37451;SDS011;23314;51.114;6.900;2023-05-17T15:23:01;6.57;;;2.40;;
37451;SDS011;23314;51.114;6.900;2023-05-17T15:25:26;4.70;;;2.33;;
37451;SDS011;23314;51.114;6.900;2023-05-17T15:27:51;4.03;;;2.10;;
37451;SDS011;23314;51.114;6.900;2023-05-17T15:30:17;8.33;;;2.17;;
37451;SDS011;23314;51.114;6.900;2023-05-17T15:32:42;4.83;;;2.07;;
37451;SDS011;23314;51.114;6.900;2023-05-17T15:35:08;6.57;;;2.70;;
37451;SDS011;23314;51.114;6.900;2023-05-17T15:37:33;10.03;;;2.33;;
37451;SDS011;23314;51.114;6.900;2023-05-17T15:40:06;9.80;;;2.37;;
37451;SDS011;23314;51.114;6.900;2023-05-17T15:42:33;5.30;;;2.30;;
37451;SDS011;23314;51.114;6.900;2023-05-17T15:44:59;7.60;;;2.30;;
37451;SDS011;23314;51.114;6.900;2023-05-17T15:47:24;8.33;;;2.83;;
37451;SDS011;23314;51.114;6.900;2023-05-17T15:49:49;6.83;;;2.53;;
37451;SDS011;23314;51.114;6.900;2023-05-17T15:52:15;6.10;;;2.40;;
37451;SDS011;23314;51.114;6.900;2023-05-17T15:54:40;8.10;;;3.00;;
37451;SDS011;23314;51.114;6.900;2023-05-17T15:57:06;7.03;;;2.20;;
37451;SDS011;23314;51.114;6.900;2023-05-17T15:59:32;8.97;;;2.60;;
37451;SDS011;23314;51.114;6.900;2023-05-17T16:01:58;7.57;;;2.90;;
37451;SDS011;23314;51.114;6.900;2023-05-17T16:04:23;8.73;;;2.80;;
37451;SDS011;23314;51.114;6.900;2023-05-17T16:06:48;4.33;;;2.03;;
37451;SDS011;23314;51.114;6.900;2023-05-17T16:09:14;8.17;;;2.60;;
37451;SDS011;23314;51.114;6.900;2023-05-17T16:11:40;9.10;;;2.77;;
37451;SDS011;23314;51.114;6.900;2023-05-17T16:14:05;7.47;;;2.93;;
37451;SDS011;23314;51.114;6.900;2023-05-17T16:16:31;7.57;;;3.00;;
37451;SDS011;23314;51.114;6.900;2023-05-17T16:18:56;8.03;;;3.07;;
37451;SDS011;23314;51.114;6.900;2023-05-17T16:21:21;7.90;;;3.17;;
37451;SDS011;23314;51.114;6.900;2023-05-17T16:23:47;4.07;;;2.40;;
37451;SDS011;23314;51.114;6.900;2023-05-17T16:26:13;7.33;;;2.67;;
37451;SDS011;23314;51.114;6.900;2023-05-17T16:28:39;11.50;;;2.83;;
37451;SDS011;23314;51.114;6.900;2023-05-17T16:31:05;11.80;;;3.27;;
37451;SDS011;23314;51.114;6.900;2023-05-17T16:33:30;7.60;;;2.57;;
37451;SDS011;23314;51.114;6.900;2023-05-17T16:35:58;9.03;;;2.70;;
37451;SDS011;23314;51.114;6.900;2023-05-17T16:38:24;7.83;;;3.07;;
37451;SDS011;23314;51.114;6.900;2023-05-17T16:40:50;7.47;;;3.07;;
37451;SDS011;23314;51.114;6.900;2023-05-17T16:43:15;6.33;;;3.23;;
37451;SDS011;23314;51.114;6.900;2023-05-17T16:45:44;13.53;;;3.23;;
37451;SDS011;23314;51.114;6.900;2023-05-17T16:48:11;7.90;;;2.78;;
37451;SDS011;23314;51.114;6.900;2023-05-17T16:50:38;7.40;;;3.40;;
37451;SDS011;23314;51.114;6.900;2023-05-17T16:53:03;8.23;;;3.03;;
37451;SDS011;23314;51.114;6.900;2023-05-17T16:55:29;10.30;;;3.50;;
37451;SDS011;23314;51.114;6.900;2023-05-17T16:57:54;12.68;;;3.03;;
37451;SDS011;23314;51.114;6.900;2023-05-17T17:00:20;7.13;;;3.28;;
37451;SDS011;23314;51.114;6.900;2023-05-17T17:02:45;7.82;;;3.15;;
37451;SDS011;23314;51.114;6.900;2023-05-17T17:05:12;9.05;;;4.82;;
37451;SDS011;23314;51.114;6.900;2023-05-17T17:07:41;10.63;;;3.65;;
37451;SDS011;23314;51.114;6.900;2023-05-17T17:10:06;7.80;;;2.80;;
37451;SDS011;23314;51.114;6.900;2023-05-17T17:12:32;10.18;;;3.28;;
37451;SDS011;23314;51.114;6.900;2023-05-17T17:14:57;10.10;;;3.22;;
37451;SDS011;23314;51.114;6.900;2023-05-17T17:17:23;9.65;;;2.97;;
37451;SDS011;23314;51.114;6.900;2023-05-17T17:19:48;10.18;;;3.50;;
37451;SDS011;23314;51.114;6.900;2023-05-17T17:22:13;6.47;;;3.25;;
37451;SDS011;23314;51.114;6.900;2023-05-17T17:24:40;9.43;;;2.92;;
37451;SDS011;23314;51.114;6.900;2023-05-17T17:27:05;9.27;;;3.08;;
37451;SDS011;23314;51.114;6.900;2023-05-17T17:29:31;8.77;;;2.65;;
37451;SDS011;23314;51.114;6.900;2023-05-17T17:31:58;7.50;;;2.83;;
37451;SDS011;23314;51.114;6.900;2023-05-17T17:34:23;12.45;;;3.38;;
37451;SDS011;23314;51.114;6.900;2023-05-17T17:36:49;6.57;;;3.00;;
37451;SDS011;23314;51.114;6.900;2023-05-17T17:39:14;10.95;;;3.20;;
37451;SDS011;23314;51.114;6.900;2023-05-17T17:41:41;7.53;;;3.17;;
37451;SDS011;23314;51.114;6.900;2023-05-17T17:44:07;8.20;;;3.20;;
37451;SDS011;23314;51.114;6.900;2023-05-17T17:46:33;9.88;;;3.30;;
37451;SDS011;23314;51.114;6.900;2023-05-17T17:48:58;8.90;;;3.22;;
37451;SDS011;23314;51.114;6.900;2023-05-17T17:51:23;7.95;;;3.58;;
37451;SDS011;23314;51.114;6.900;2023-05-17T17:53:49;12.25;;;3.30;;
37451;SDS011;23314;51.114;6.900;2023-05-17T17:56:16;8.45;;;3.58;;
37451;SDS011;23314;51.114;6.900;2023-05-17T17:58:42;9.30;;;3.08;;
37451;SDS011;23314;51.114;6.900;2023-05-17T18:01:07;8.40;;;3.17;;
37451;SDS011;23314;51.114;6.900;2023-05-17T18:03:33;12.88;;;3.22;;
37451;SDS011;23314;51.114;6.900;2023-05-17T18:05:59;9.07;;;3.25;;
37451;SDS011;23314;51.114;6.900;2023-05-17T18:08:25;9.52;;;2.70;;
37451;SDS011;23314;51.114;6.900;2023-05-17T18:10:50;10.45;;;3.78;;
37451;SDS011;23314;51.114;6.900;2023-05-17T18:13:16;10.25;;;3.20;;
37451;SDS011;23314;51.114;6.900;2023-05-17T18:15:41;9.38;;;3.60;;
37451;SDS011;23314;51.114;6.900;2023-05-17T18:18:07;15.00;;;4.13;;
37451;SDS011;23314;51.114;6.900;2023-05-17T18:20:33;7.35;;;3.10;;
37451;SDS011;23314;51.114;6.900;2023-05-17T18:22:58;8.77;;;3.25;;
37451;SDS011;23314;51.114;6.900;2023-05-17T18:25:24;11.55;;;3.55;;
37451;SDS011;23314;51.114;6.900;2023-05-17T18:27:49;9.45;;;3.38;;
37451;SDS011;23314;51.114;6.900;2023-05-17T18:30:15;10.38;;;3.25;;
37451;SDS011;23314;51.114;6.900;2023-05-17T18:32:41;7.90;;;3.08;;
37451;SDS011;23314;51.114;6.900;2023-05-17T18:35:07;13.57;;;4.13;;
37451;SDS011;23314;51.114;6.900;2023-05-17T18:37:32;10.98;;;2.85;;
37451;SDS011;23314;51.114;6.900;2023-05-17T18:39:58;11.15;;;3.45;;
37451;SDS011;23314;51.114;6.900;2023-05-17T18:42:26;8.80;;;3.10;;
37451;SDS011;23314;51.114;6.900;2023-05-17T18:44:52;9.83;;;3.40;;
37451;SDS011;23314;51.114;6.900;2023-05-17T18:47:18;8.67;;;3.20;;